Time;durP1;ratioP1;P1;durP2;ratioP2;P2;SDS_P1;SDS_P2;PMS_P1;PMS_P2;Temp;Humidity;BMP_temperature;BMP_pressure;BME280_temperature;BME280_humidity;BME280_pressure;Samples;Min_cycle;Max_cycle;Signal;HPM_P1;HPM_P2
2023/12/28 00:01:51;;;;;;;56.40;34.67;;;;;;;2.82;95.39;94103.97;5133403;27;20050;-72
2023/12/28 00:04:18;;;;;;;47.63;28.98;;;;;;;2.70;94.42;94083.88;5129457;27;20563;-72
2023/12/28 00:06:47;;;;;;;34.50;20.90;;;;;;;2.72;94.91;94098.94;5129468;27;20054;-72
2023/12/28 00:09:14;;;;;;;38.30;24.73;;;;;;;2.77;95.17;94104.38;5132679;27;20047;-72
2023/12/28 00:11:41;;;;;;;38.17;21.48;;;;;;;2.70;94.92;94103.34;5132091;27;20047;-72
2023/12/28 00:14:08;;;;;;;31.40;20.25;;;;;;;2.69;95.45;94111.91;5134979;27;20078;-72
2023/12/28 00:16:37;;;;;;;28.10;16.42;;;;;;;2.62;95.45;94115.00;5129763;27;20050;-72
2023/12/28 00:19:04;;;;;;;24.30;16.15;;;;;;;2.59;95.55;94112.72;5131515;27;20047;-72
2023/12/28 00:21:31;;;;;;;23.77;14.60;;;;;;;2.62;95.91;94107.38;5141416;27;20046;-72
2023/12/28 00:23:59;;;;;;;24.35;14.60;;;;;;;2.69;96.72;94107.63;5128750;27;20040;-72
2023/12/28 00:26:26;;;;;;;22.33;13.48;;;;;;;2.72;96.64;94104.81;5127743;27;20043;-72
2023/12/28 00:28:53;;;;;;;23.02;14.68;;;;;;;2.69;97.40;94111.91;5132093;27;20158;-72
2023/12/28 00:31:20;;;;;;;23.95;15.80;;;;;;;2.61;97.22;94113.41;5128712;27;20371;-72
2023/12/28 00:33:48;;;;;;;20.77;13.55;;;;;;;2.61;96.84;94108.31;5133544;27;20051;-72
2023/12/28 00:36:16;;;;;;;21.88;13.10;;;;;;;2.56;96.62;94115.53;5130664;27;20053;-72
2023/12/28 00:38:43;;;;;;;19.10;11.77;;;;;;;2.53;95.34;94113.28;5133458;27;20051;-72
2023/12/28 00:41:11;;;;;;;17.00;10.85;;;;;;;2.48;94.06;94113.69;5132597;27;20046;-72
2023/12/28 00:43:38;;;;;;;15.93;9.85;;;;;;;2.33;93.99;94115.88;5129275;27;20402;-72
2023/12/28 00:46:05;;;;;;;14.30;9.18;;;;;;;2.34;94.45;94114.91;5133555;27;20047;-72
2023/12/28 00:48:32;;;;;;;16.52;9.63;;;;;;;2.33;95.13;94112.50;5133394;27;20671;-72
2023/12/28 00:50:59;;;;;;;15.25;9.35;;;;;;;2.20;95.48;94108.53;5131452;27;20057;-72
2023/12/28 00:53:27;;;;;;;26.98;16.25;;;;;;;2.13;96.17;94117.63;5128014;27;20055;-72
2023/12/28 00:55:54;;;;;;;33.10;19.95;;;;;;;2.06;96.97;94114.81;5131600;27;20043;-72
2023/12/28 00:58:22;;;;;;;24.45;14.63;;;;;;;2.08;97.09;94118.00;5128168;27;20403;-72
2023/12/28 01:00:49;;;;;;;22.00;13.27;;;;;;;2.09;97.19;94121.38;5133134;27;20406;-72
2023/12/28 01:03:16;;;;;;;25.60;14.63;;;;;;;2.07;98.10;94123.22;5129397;27;20051;-72
2023/12/28 01:05:43;;;;;;;23.90;14.98;;;;;;;2.09;97.49;94119.59;5129833;27;20107;-72
2023/12/28 01:08:09;;;;;;;25.00;15.35;;;;;;;2.11;97.19;94122.00;5134824;27;20043;-72
2023/12/28 01:10:36;;;;;;;27.02;17.67;;;;;;;2.12;97.30;94116.81;5141575;27;20782;-72
2023/12/28 01:13:04;;;;;;;26.30;15.82;;;;;;;2.16;97.95;94119.09;5134128;27;20126;-72
2023/12/28 01:15:32;;;;;;;24.90;16.40;;;;;;;2.17;98.17;94123.22;5137683;27;20129;-73
2023/12/28 01:17:59;;;;;;;26.70;17.15;;;;;;;2.08;97.36;94117.22;5136038;27;20053;-73
2023/12/28 01:20:26;;;;;;;25.55;17.00;;;;;;;2.09;96.60;94121.38;5134635;27;20406;-73
2023/12/28 01:22:53;;;;;;;26.65;15.02;;;;;;;2.08;95.91;94127.38;5135720;27;20043;-73
2023/12/28 01:25:19;;;;;;;130.88;52.00;;;;;;;2.00;95.80;94128.81;5134829;27;20065;-73
2023/12/28 01:27:46;;;;;;;73.68;31.70;;;;;;;2.07;95.15;94135.88;5132575;27;20049;-73
2023/12/28 01:30:13;;;;;;;41.78;21.20;;;;;;;2.04;95.28;94139.47;5132823;27;20039;-72
2023/12/28 01:32:42;;;;;;;35.35;18.85;;;;;;;1.98;95.46;94135.75;5134913;27;20058;-72
2023/12/28 01:35:09;;;;;;;34.08;17.40;;;;;;;1.94;95.75;94126.81;5135076;27;20104;-73
2023/12/28 01:37:36;;;;;;;31.50;16.65;;;;;;;1.86;95.50;94132.56;5133276;27;20047;-73
2023/12/28 01:40:03;;;;;;;24.08;14.40;;;;;;;1.82;95.94;94123.63;5137842;27;20035;-72
2023/12/28 01:42:31;;;;;;;21.50;13.15;;;;;;;1.93;96.95;94132.81;5132705;27;20050;-72
2023/12/28 01:44:58;;;;;;;26.80;13.60;;;;;;;1.93;96.54;94132.81;5139963;27;20045;-72
2023/12/28 01:47:26;;;;;;;19.25;12.65;;;;;;;1.94;97.31;94134.44;5134713;27;20135;-73
2023/12/28 01:49:55;;;;;;;20.52;10.32;;;;;;;1.88;97.48;94124.81;5131747;27;20039;-73
2023/12/28 01:52:22;;;;;;;15.88;10.68;;;;;;;1.94;96.40;94129.34;5133272;27;20069;-72
2023/12/28 01:54:50;;;;;;;14.90;10.55;;;;;;;1.87;95.58;94130.84;5142827;27;20047;-73
2023/12/28 01:57:18;;;;;;;16.25;10.25;;;;;;;1.79;95.30;94135.75;5131333;27;20096;-73
2023/12/28 01:59:45;;;;;;;17.55;10.57;;;;;;;1.80;94.88;94133.09;5131023;27;20046;-73
2023/12/28 02:02:12;;;;;;;14.52;9.10;;;;;;;1.74;95.15;94136.16;5132382;27;20537;-73
2023/12/28 02:04:39;;;;;;;15.38;9.45;;;;;;;1.69;94.85;94128.16;5131210;27;20054;-72
2023/12/28 02:07:08;;;;;;;16.25;8.63;;;;;;;1.72;94.66;94128.69;5133510;27;20528;-72
2023/12/28 02:09:35;;;;;;;14.20;8.60;;;;;;;1.66;94.84;94131.75;5132420;27;20043;-72
2023/12/28 02:12:02;;;;;;;16.17;9.80;;;;;;;1.51;95.90;94126.25;5135204;27;20043;-72
2023/12/28 02:14:30;;;;;;;18.88;10.63;;;;;;;1.57;97.41;94128.28;5142035;27;20133;-73
2023/12/28 02:17:04;;;;;;;19.45;12.98;;;;;;;1.53;98.06;94119.31;5132059;27;20047;-72
2023/12/28 02:19:44;;;;;;;27.75;15.80;;;;;;;1.51;97.69;94117.84;5130577;27;20101;-72
2023/12/28 02:22:15;;;;;;;28.27;17.80;;;;;;;1.45;98.01;94122.50;5132197;27;20043;-71
2023/12/28 02:25:06;;;;;;;29.00;18.92;;;;;;;1.41;98.66;94117.84;5130762;27;20039;-71
2023/12/28 02:27:34;;;;;;;42.88;25.40;;;;;;;1.28;98.76;94105.44;5138599;27;20035;-71
2023/12/28 02:30:01;;;;;;;37.97;21.88;;;;;;;1.32;99.34;94107.59;5134481;27;20051;-71
2023/12/28 02:32:39;;;;;;;36.45;21.88;;;;;;;1.42;98.67;94111.84;5137119;27;20050;-71
2023/12/28 02:35:15;;;;;;;27.23;18.40;;;;;;;1.46;97.92;94106.41;5131600;27;20045;-71
2023/12/28 02:37:43;;;;;;;32.75;21.13;;;;;;;1.43;97.78;94110.94;5138086;27;20051;-71
2023/12/28 02:40:14;;;;;;;30.80;20.02;;;;;;;1.46;98.16;94110.66;5142147;27;20057;-72
2023/12/28 02:42:40;;;;;;;26.00;17.17;;;;;;;1.50;97.55;94101.88;5131937;27;20043;-71
2023/12/28 02:45:08;;;;;;;23.35;14.98;;;;;;;1.47;96.51;94107.19;5138100;27;20050;-71
2023/12/28 02:47:35;;;;;;;24.75;15.27;;;;;;;1.44;95.48;94107.47;5130618;27;20574;-72
2023/12/28 02:50:01;;;;;;;23.73;15.38;;;;;;;1.42;96.19;94115.19;5131133;27;20055;-71
2023/12/28 02:52:28;;;;;;;24.42;15.75;;;;;;;1.40;96.29;94104.41;5139870;27;20419;-71
2023/12/28 02:54:55;;;;;;;23.08;14.88;;;;;;;1.39;96.00;94102.00;5137145;27;20041;-71
2023/12/28 02:57:24;;;;;;;25.70;16.80;;;;;;;1.37;96.23;94091.19;5130104;27;20051;-71
2023/12/28 02:59:50;;;;;;;24.70;15.70;;;;;;;1.35;96.20;94096.41;5141009;27;20441;-71
2023/12/28 03:02:17;;;;;;;22.95;13.63;;;;;;;1.43;95.99;94096.53;5130193;27;20043;-71
2023/12/28 03:04:44;;;;;;;23.05;14.70;;;;;;;1.36;95.47;94092.94;5135471;27;20603;-71
2023/12/28 03:07:11;;;;;;;21.85;13.07;;;;;;;1.37;96.48;94094.53;5139453;27;20047;-72
2023/12/28 03:09:39;;;;;;;22.00;14.02;;;;;;;1.24;95.85;94076.25;5130659;27;20083;-71
2023/12/28 03:12:07;;;;;;;25.42;15.27;;;;;;;1.31;97.00;94087.47;5131730;27;20094;-71
2023/12/28 03:14:35;;;;;;;19.20;12.55;;;;;;;1.29;96.37;94087.59;5138785;27;20057;-71
2023/12/28 03:17:02;;;;;;;17.40;11.82;;;;;;;1.20;96.01;94091.69;5131456;27;20053;-71
2023/12/28 03:19:29;;;;;;;17.70;12.25;;;;;;;1.29;96.08;94084.28;5131759;27;20070;-71
2023/12/28 03:21:56;;;;;;;19.00;12.18;;;;;;;1.24;96.33;94096.50;5129820;27;20053;-71
2023/12/28 03:24:23;;;;;;;16.95;11.88;;;;;;;1.20;95.71;94079.03;5133641;27;20051;-71
2023/12/28 03:26:50;;;;;;;17.75;11.50;;;;;;;1.24;95.72;94086.38;5131852;27;20047;-72
2023/12/28 03:29:17;;;;;;;14.80;10.70;;;;;;;1.21;95.17;94079.84;5130271;27;20495;-72
2023/12/28 03:31:46;;;;;;;18.25;11.85;;;;;;;1.20;96.17;94089.16;5131164;27;20054;-72
2023/12/28 03:34:13;;;;;;;20.90;12.52;;;;;;;1.12;96.31;94081.44;5130048;27;20055;-72
2023/12/28 03:36:39;;;;;;;21.73;14.52;;;;;;;1.12;96.27;94080.63;5139183;27;20043;-72
2023/12/28 03:39:06;;;;;;;30.40;19.85;;;;;;;1.11;96.23;94086.63;5131428;27;20133;-72
2023/12/28 03:41:33;;;;;;;33.30;23.50;;;;;;;1.06;96.85;94087.00;5129003;27;20051;-72
2023/12/28 03:44:00;;;;;;;29.95;20.48;;;;;;;1.08;97.19;94087.69;5130729;27;20043;-72
2023/12/28 03:46:27;;;;;;;31.67;20.08;;;;;;;0.97;97.85;94077.66;5145597;27;20045;-72
2023/12/28 03:48:55;;;;;;;32.85;22.45;;;;;;;1.10;97.07;94082.50;5132914;27;20057;-72
2023/12/28 03:51:23;;;;;;;30.73;21.35;;;;;;;1.12;97.40;94093.28;5128910;27;20494;-72
2023/12/28 03:53:50;;;;;;;28.77;20.15;;;;;;;1.11;97.68;94092.47;5132728;27;20055;-72
2023/12/28 03:56:22;;;;;;;27.25;18.60;;;;;;;1.11;97.97;94105.13;5138043;27;20516;-72
2023/12/28 03:58:49;;;;;;;26.52;17.90;;;;;;;1.14;97.70;94097.28;5129477;27;20054;-72
2023/12/28 04:01:18;;;;;;;24.15;17.88;;;;;;;1.14;98.25;94094.75;5140378;27;20046;-72
2023/12/28 04:03:44;;;;;;;25.17;17.15;;;;;;;1.08;97.43;94094.47;5130955;27;20051;-72
2023/12/28 04:06:13;;;;;;;26.80;18.95;;;;;;;1.08;96.87;94094.47;5139141;27;20410;-72
2023/12/28 04:08:41;;;;;;;34.22;20.80;;;;;;;1.08;96.84;94094.47;5131549;27;20069;-72
2023/12/28 04:11:08;;;;;;;30.35;20.65;;;;;;;1.06;95.90;94100.44;5142970;27;20050;-72
2023/12/28 04:13:35;;;;;;;33.28;21.65;;;;;;;0.99;96.27;94096.03;5129358;27;20053;-72
2023/12/28 04:16:02;;;;;;;33.38;21.25;;;;;;;0.96;95.55;94094.56;5132503;27;20447;-72
2023/12/28 04:18:29;;;;;;;32.03;23.02;;;;;;;0.94;95.14;94093.91;5137440;27;20832;-72
2023/12/28 04:20:56;;;;;;;29.95;20.63;;;;;;;0.91;96.20;94102.53;5139337;27;20060;-72
2023/12/28 04:23:24;;;;;;;33.47;25.13;;;;;;;0.89;96.08;94094.25;5128535;27;20126;-72
2023/12/28 04:25:51;;;;;;;37.50;26.10;;;;;;;0.79;96.04;94098.50;5132779;27;20047;-72
2023/12/28 04:28:18;;;;;;;32.15;23.75;;;;;;;0.45;97.68;94066.69;5139683;27;20043;-72
2023/12/28 04:30:45;;;;;;;32.45;23.77;;;;;;;0.70;100.00;94096.75;5129544;27;20761;-73
2023/12/28 04:33:12;;;;;;;34.67;22.50;;;;;;;0.67;99.87;94097.78;5142805;27;20047;-72
2023/12/28 04:35:39;;;;;;;33.78;23.95;;;;;;;0.56;100.00;94093.63;5132459;27;20045;-72
2023/12/28 04:38:06;;;;;;;35.60;24.35;;;;;;;0.55;100.00;94086.16;5140207;27;21048;-72
2023/12/28 04:40:33;;;;;;;36.63;21.52;;;;;;;0.62;100.00;94102.41;5138180;27;20043;-72
2023/12/28 04:43:00;;;;;;;33.80;22.55;;;;;;;0.49;100.00;94080.69;5141207;27;20124;-72
2023/12/28 04:45:27;;;;;;;33.40;24.25;;;;;;;0.69;100.00;94106.03;5133706;27;20058;-72
2023/12/28 04:47:54;;;;;;;61.22;40.17;;;;;;;0.45;100.00;94063.34;5138847;27;20039;-72
2023/12/28 04:50:21;;;;;;;48.35;32.00;;;;;;;0.62;99.35;94093.13;5139298;27;20043;-72
2023/12/28 04:52:48;;;;;;;77.30;45.80;;;;;;;0.73;99.81;94102.34;5136468;27;20047;-72
2023/12/28 04:55:15;;;;;;;46.25;28.05;;;;;;;0.69;98.73;94106.03;5132954;27;20170;-72
2023/12/28 04:57:43;;;;;;;41.05;25.85;;;;;;;0.73;99.16;94107.41;5137053;27;20162;-72
2023/12/28 05:00:11;;;;;;;35.22;24.27;;;;;;;0.72;98.14;94104.97;5138568;27;20047;-72
2023/12/28 05:02:38;;;;;;;38.28;24.15;;;;;;;0.74;97.96;94098.09;5141664;27;20149;-72
2023/12/28 05:05:05;;;;;;;36.33;23.80;;;;;;;0.68;98.58;94098.59;5133853;27;20043;-73
2023/12/28 05:07:32;;;;;;;35.80;23.75;;;;;;;0.68;98.55;94098.59;5135420;27;20046;-72
2023/12/28 05:09:59;;;;;;;37.15;23.90;;;;;;;0.70;98.65;94107.66;5132481;27;20583;-72
2023/12/28 05:12:26;;;;;;;45.38;26.48;;;;;;;0.76;98.18;94101.28;5136166;27;20057;-71
2023/12/28 05:14:54;;;;;;;51.25;32.30;;;;;;;0.76;98.39;94107.16;5134137;27;20054;-72
2023/12/28 05:17:21;;;;;;;45.08;25.02;;;;;;;0.80;98.76;94105.16;5138853;27;20055;-71
2023/12/28 05:19:48;;;;;;;31.27;20.52;;;;;;;0.77;97.49;94102.88;5139459;27;20039;-71
2023/12/28 05:22:15;;;;;;;37.30;21.50;;;;;;;0.76;97.38;94109.69;5135172;27;20047;-72
2023/12/28 05:24:42;;;;;;;40.90;25.60;;;;;;;0.74;96.88;94101.41;5133304;27;20043;-72
2023/12/28 05:27:09;;;;;;;42.10;26.60;;;;;;;0.78;96.68;94107.81;5147462;27;20042;-72
2023/12/28 05:29:36;;;;;;;39.20;26.35;;;;;;;0.78;96.28;94115.41;5137425;27;20886;-72
2023/12/28 05:32:05;;;;;;;44.17;27.75;;;;;;;0.56;96.97;94081.00;5143523;27;20118;-72
2023/12/28 05:34:32;;;;;;;50.15;31.23;;;;;;;0.78;97.55;94114.59;5140983;27;20513;-72
2023/12/28 05:36:59;;;;;;;55.17;34.38;;;;;;;0.77;98.67;94118.06;5144556;27;20134;-72
2023/12/28 05:39:25;;;;;;;71.47;38.50;;;;;;;0.80;100.00;94113.53;5137601;27;20043;-72
2023/12/28 05:41:52;;;;;;;81.22;42.45;;;;;;;0.81;100.00;94101.69;5139376;27;20043;-72
2023/12/28 05:44:20;;;;;;;69.30;39.50;;;;;;;0.89;100.00;94118.78;5137794;27;20051;-72
2023/12/28 05:46:47;;;;;;;80.18;41.53;;;;;;;1.01;100.00;94117.75;5143430;27;20042;-72
2023/12/28 05:49:16;;;;;;;80.75;38.33;;;;;;;1.05;100.00;94123.34;5135822;27;20421;-73
2023/12/28 05:51:43;;;;;;;80.97;37.15;;;;;;;1.05;100.00;94119.09;5138454;27;20414;-72
2023/12/28 05:54:10;;;;;;;93.40;40.15;;;;;;;0.98;100.00;94125.63;5138049;27;20132;-72
2023/12/28 05:56:37;;;;;;;67.88;34.28;;;;;;;1.04;100.00;94129.34;5133411;27;20046;-72
2023/12/28 05:59:04;;;;;;;79.68;36.72;;;;;;;1.12;100.00;94132.06;5136406;27;20406;-72
2023/12/28 06:01:31;;;;;;;97.45;37.10;;;;;;;1.18;100.00;94139.13;5148334;27;20047;-72
2023/12/28 06:03:59;;;;;;;91.63;38.53;;;;;;;1.16;100.00;94125.00;5140441;27;20051;-72
2023/12/28 06:06:27;;;;;;;80.63;34.42;;;;;;;1.18;100.00;94133.25;5136969;27;20498;-72
2023/12/28 06:08:54;;;;;;;91.20;41.50;;;;;;;1.13;100.00;94132.84;5132746;27;20047;-72
2023/12/28 06:11:21;;;;;;;90.03;39.70;;;;;;;1.18;100.00;94131.53;5135294;27;20038;-72
2023/12/28 06:13:48;;;;;;;98.95;39.15;;;;;;;1.22;100.00;94134.59;5143549;27;20766;-72
2023/12/28 06:16:15;;;;;;;91.93;39.55;;;;;;;1.14;100.00;94132.72;5132336;27;20043;-72
2023/12/28 06:18:42;;;;;;;103.32;41.80;;;;;;;1.18;100.00;94138.31;5145140;27;20406;-72
2023/12/28 06:21:09;;;;;;;98.30;44.03;;;;;;;1.14;100.00;94131.91;5139724;27;20049;-72
2023/12/28 06:23:38;;;;;;;108.85;50.00;;;;;;;1.10;100.00;94122.97;5133486;27;20053;-72
2023/12/28 06:26:08;;;;;;;112.50;52.20;;;;;;;1.14;100.00;94129.38;5146785;27;20121;-72
2023/12/28 06:28:35;;;;;;;105.50;50.30;;;;;;;1.16;100.00;94133.38;5135481;27;20065;-72
2023/12/28 06:31:03;;;;;;;111.63;55.83;;;;;;;1.10;100.00;94121.25;5131405;27;20039;-72
2023/12/28 06:33:30;;;;;;;87.43;48.53;;;;;;;1.22;100.00;94129.53;5131435;27;20063;-72
2023/12/28 06:35:58;;;;;;;88.38;44.05;;;;;;;1.18;100.00;94128.19;5132274;27;20520;-72
2023/12/28 06:38:25;;;;;;;90.68;44.95;;;;;;;1.17;100.00;94126.59;5134334;27;20133;-72
2023/12/28 06:40:53;;;;;;;100.20;53.50;;;;;;;1.21;100.00;94125.41;5135458;27;20047;-72
2023/12/28 06:43:20;;;;;;;84.22;39.95;;;;;;;1.27;100.00;94134.19;5139385;27;20046;-72
2023/12/28 06:45:47;;;;;;;85.97;39.25;;;;;;;1.26;100.00;94122.47;5135926;27;20049;-72
2023/12/28 06:48:14;;;;;;;83.20;41.55;;;;;;;1.32;100.00;94125.31;5140510;27;20061;-72
2023/12/28 06:50:41;;;;;;;70.47;33.60;;;;;;;1.33;100.00;94129.44;5134014;27;20426;-72
2023/12/28 06:53:08;;;;;;;70.28;33.38;;;;;;;1.40;100.00;94132.25;5129557;27;20047;-72
2023/12/28 06:55:35;;;;;;;65.13;30.73;;;;;;;1.44;100.00;94131.03;5137669;27;20047;-72
2023/12/28 06:58:04;;;;;;;58.70;34.30;;;;;;;1.53;100.00;94136.28;5130556;27;20047;-72
2023/12/28 07:00:30;;;;;;;65.55;32.95;;;;;;;1.44;100.00;94128.50;5141312;27;20045;-72
2023/12/28 07:02:57;;;;;;;66.07;36.17;;;;;;;1.49;100.00;94133.19;5135238;27;20049;-72
2023/12/28 07:05:24;;;;;;;79.57;39.97;;;;;;;1.50;100.00;94118.78;5137428;27;20039;-72
2023/12/28 07:07:51;;;;;;;108.18;55.28;;;;;;;1.62;100.00;94122.78;5136452;27;20043;-72
2023/12/28 07:10:18;;;;;;;123.13;64.30;;;;;;;1.65;100.00;94125.09;5129932;27;20043;-72
2023/12/28 07:12:45;;;;;;;138.27;74.18;;;;;;;1.68;100.00;94127.38;5134980;27;20046;-72
2023/12/28 07:15:14;;;;;;;121.85;64.63;;;;;;;1.79;100.00;94128.16;5128599;27;20051;-72
2023/12/28 07:17:41;;;;;;;131.05;67.72;;;;;;;1.72;100.00;94122.81;5132898;27;20464;-73
2023/12/28 07:20:10;;;;;;;116.40;62.42;;;;;;;1.69;100.00;94115.47;5131389;27;20047;-72
2023/12/28 07:22:38;;;;;;;119.47;62.90;;;;;;;1.78;100.00;94116.41;5138032;27;20073;-73
2023/12/28 07:25:06;;;;;;;100.25;50.50;;;;;;;1.51;100.00;94088.28;5130070;27;20495;-72
2023/12/28 07:27:33;;;;;;;75.13;42.90;;;;;;;1.43;100.00;94128.66;5130230;27;20127;-72
2023/12/28 07:30:00;;;;;;;117.90;69.07;;;;;;;1.50;100.00;94122.13;5135319;27;20047;-72
2023/12/28 07:32:29;;;;;;;85.95;50.65;;;;;;;1.15;100.00;94124.19;5134771;27;20043;-72
2023/12/28 07:34:58;;;;;;;87.70;49.63;;;;;;;0.89;100.00;94113.72;5130039;27;20047;-72
2023/12/28 07:37:28;;;;;;;81.63;43.05;;;;;;;0.51;100.00;94094.00;5129332;27;20039;-72
2023/12/28 07:39:55;;;;;;;89.57;49.92;;;;;;;0.72;100.00;94137.84;5136458;27;20640;-72
2023/12/28 07:42:22;;;;;;;90.82;47.92;;;;;;;0.93;100.00;94136.09;5139546;27;20147;-72
2023/12/28 07:44:49;;;;;;;78.18;46.33;;;;;;;0.41;100.00;94133.56;5135083;27;20051;-72
2023/12/28 07:47:16;;;;;;;76.20;41.67;;;;;;;0.44;100.00;94128.28;5131290;27;20046;-72
2023/12/28 07:49:44;;;;;;;81.28;43.20;;;;;;;0.70;100.00;94137.19;5130615;27;20051;-72
2023/12/28 07:52:11;;;;;;;84.03;44.78;;;;;;;0.73;100.00;94132.69;5129653;27;20043;-72
2023/12/28 07:54:38;;;;;;;96.28;48.95;;;;;;;0.84;100.00;94144.47;5137317;27;20047;-71
2023/12/28 07:57:05;;;;;;;92.45;49.30;;;;;;;0.95;100.00;94143.56;5132602;27;20045;-71
2023/12/28 07:59:32;;;;;;;95.63;50.00;;;;;;;0.77;100.00;94140.81;5136966;27;20414;-71
2023/12/28 08:01:58;;;;;;;107.60;52.13;;;;;;;1.43;100.00;94144.63;5135197;27;20043;-71
2023/12/28 08:04:25;;;;;;;92.25;48.97;;;;;;;1.43;100.00;94142.09;5141028;27;20051;-72
2023/12/28 08:06:54;;;;;;;88.97;50.10;;;;;;;1.80;100.00;94128.03;5135947;27;20039;-72
2023/12/28 08:09:20;;;;;;;101.50;53.20;;;;;;;1.05;100.00;94105.63;5129896;27;20042;-72
2023/12/28 08:11:47;;;;;;;105.78;60.35;;;;;;;1.27;100.00;94141.78;5132966;27;20069;-72
2023/12/28 08:14:14;;;;;;;113.88;62.92;;;;;;;0.77;100.00;94133.22;5132536;27;20069;-72
2023/12/28 08:16:41;;;;;;;108.75;60.42;;;;;;;0.38;100.00;94128.78;5131479;27;20126;-73
2023/12/28 08:19:08;;;;;;;112.70;62.38;;;;;;;0.22;100.00;94130.00;5130329;27;20587;-73
2023/12/28 08:21:35;;;;;;;106.70;54.20;;;;;;;-0.01;100.00;94126.78;5135493;27;20045;-72
2023/12/28 08:24:04;;;;;;;115.95;58.63;;;;;;;0.18;100.00;94121.06;5136098;27;20047;-72
2023/12/28 08:26:32;;;;;;;91.47;49.33;;;;;;;0.70;100.00;94127.09;5129835;27;20499;-73
2023/12/28 08:28:59;;;;;;;87.85;44.50;;;;;;;0.78;100.00;94124.72;5128036;27;20414;-73
2023/12/28 08:31:26;;;;;;;76.75;42.15;;;;;;;0.89;100.00;94123.84;5127970;27;20055;-73
2023/12/28 08:33:53;;;;;;;84.53;41.03;;;;;;;1.16;100.00;94119.94;5073998;27;1668958;-73
2023/12/28 08:36:20;;;;;;;87.15;45.78;;;;;;;1.22;100.00;94121.94;5133252;27;20128;-73
2023/12/28 08:39:08;;;;;;;78.35;43.67;;;;;;;1.20;100.00;94101.00;5129436;27;20122;-73
2023/12/28 08:41:53;;;;;;;78.68;41.90;;;;;;;1.22;100.00;94114.34;5136937;27;20505;-72
2023/12/28 08:44:20;;;;;;;76.55;41.40;;;;;;;1.37;100.00;94116.50;5129277;27;20169;-73
2023/12/28 08:46:47;;;;;;;81.25;43.00;;;;;;;1.55;100.00;94107.34;5130877;27;20050;-72
2023/12/28 08:49:15;;;;;;;90.72;47.83;;;;;;;1.64;100.00;94104.94;5131996;27;20061;-72
2023/12/28 08:51:42;;;;;;;110.80;59.35;;;;;;;2.18;100.00;94096.94;5132971;27;20046;-73
2023/12/28 08:54:10;;;;;;;108.60;58.47;;;;;;;2.29;100.00;94096.78;5133444;27;20422;-72
2023/12/28 08:56:37;;;;;;;93.28;49.95;;;;;;;1.84;100.00;94098.16;5128688;27;20054;-72
2023/12/28 08:59:04;;;;;;;99.72;50.83;;;;;;;1.81;100.00;94101.75;5135109;27;20046;-72
2023/12/28 09:01:31;;;;;;;86.55;47.83;;;;;;;1.78;100.00;94101.22;5129840;27;20510;-72
2023/12/28 09:03:59;;;;;;;82.53;43.53;;;;;;;1.69;100.00;94097.75;5128763;27;20495;-72
2023/12/28 09:06:26;;;;;;;83.78;45.42;;;;;;;1.78;100.00;94098.69;5128325;27;20039;-72
2023/12/28 09:08:54;;;;;;;73.85;43.03;;;;;;;1.88;100.00;94089.34;5132909;27;20039;-70
2023/12/28 09:11:22;;;;;;;73.57;42.95;;;;;;;1.94;100.00;94085.50;5129364;27;20051;-70
2023/12/28 09:13:49;;;;;;;70.28;43.13;;;;;;;1.91;100.00;94075.63;5137275;27;20050;-70
2023/12/28 09:16:17;;;;;;;65.38;40.55;;;;;;;2.28;100.00;94087.59;5141981;27;20050;-70
2023/12/28 09:18:44;;;;;;;60.22;38.05;;;;;;;2.44;100.00;94079.41;5128850;27;20079;-70
2023/12/28 09:21:11;;;;;;;63.55;38.40;;;;;;;2.48;100.00;94074.84;5135621;27;20133;-70
2023/12/28 09:23:40;;;;;;;56.03;36.42;;;;;;;3.02;100.00;94074.25;5131505;27;20051;-70
2023/12/28 09:26:07;;;;;;;58.90;36.72;;;;;;;3.19;100.00;94062.50;5134438;27;20053;-70
2023/12/28 09:28:36;;;;;;;56.10;35.45;;;;;;;3.22;100.00;94067.31;5140634;27;20043;-71
2023/12/28 09:31:03;;;;;;;56.55;35.70;;;;;;;3.21;100.00;94041.09;5140887;27;20055;-70
2023/12/28 09:33:31;;;;;;;63.25;40.65;;;;;;;3.38;100.00;94053.19;5132890;27;20051;-70
2023/12/28 09:35:58;;;;;;;51.20;33.30;;;;;;;3.53;100.00;94050.94;5133912;27;20065;-70
2023/12/28 09:38:26;;;;;;;54.22;32.85;;;;;;;3.59;100.00;94047.81;5132811;27;20129;-70
2023/12/28 09:40:54;;;;;;;47.70;28.55;;;;;;;3.74;100.00;94046.38;5132833;27;20458;-71
2023/12/28 09:43:25;;;;;;;44.42;28.17;;;;;;;3.96;100.00;94044.31;5135484;27;20081;-71
2023/12/28 09:45:54;;;;;;;42.75;27.63;;;;;;;3.97;100.00;94048.44;5137674;27;20038;-71
2023/12/28 09:48:21;;;;;;;42.00;26.63;;;;;;;4.11;100.00;94047.09;5136046;27;20100;-71
2023/12/28 09:50:53;;;;;;;45.95;25.95;;;;;;;4.08;100.00;94032.13;5134433;27;20045;-71
2023/12/28 09:53:22;;;;;;;46.70;26.45;;;;;;;4.27;100.00;94026.06;5133180;27;20047;-71
2023/12/28 09:55:51;;;;;;;48.92;26.38;;;;;;;4.52;100.00;94010.13;5133763;27;20046;-71
2023/12/28 09:58:19;;;;;;;44.38;27.13;;;;;;;4.90;100.00;94025.88;5134296;27;20043;-71
2023/12/28 10:00:48;;;;;;;43.78;27.55;;;;;;;5.02;100.00;94012.84;5136733;27;20046;-71
2023/12/28 10:03:17;;;;;;;49.00;26.73;;;;;;;5.27;100.00;94010.38;5133263;27;20047;-72
2023/12/28 10:05:45;;;;;;;43.53;23.10;;;;;;;5.23;100.00;94009.88;5135545;27;20049;-72
2023/12/28 10:08:13;;;;;;;44.47;22.67;;;;;;;5.16;100.00;93991.06;5137319;27;20043;-71
2023/12/28 10:10:40;;;;;;;40.45;21.73;;;;;;;5.31;100.00;94002.25;5137761;27;20047;-71
2023/12/28 10:13:08;;;;;;;44.38;22.83;;;;;;;5.26;100.00;93986.63;5135056;27;20417;-71
2023/12/28 10:15:37;;;;;;;45.47;22.85;;;;;;;5.39;100.00;93998.91;5137298;27;20059;-71
2023/12/28 10:18:05;;;;;;;39.42;22.52;;;;;;;5.46;100.00;93983.81;5135126;27;20108;-71
2023/12/28 10:20:34;;;;;;;42.40;21.88;;;;;;;5.68;100.00;93973.91;5130930;27;20566;-71
2023/12/28 10:23:01;;;;;;;42.90;23.27;;;;;;;5.83;100.00;93974.06;5134013;27;20044;-71
2023/12/28 10:25:29;;;;;;;47.33;24.50;;;;;;;5.95;100.00;93949.84;5130657;27;20448;-71
2023/12/28 10:27:56;;;;;;;43.67;24.48;;;;;;;6.20;100.00;93943.91;5132708;27;20491;-71
2023/12/28 10:30:22;;;;;;;45.13;25.55;;;;;;;6.44;100.00;93945.59;5131460;27;20152;-71
2023/12/28 10:32:50;;;;;;;51.58;26.83;;;;;;;6.57;100.00;93942.47;5131783;27;20047;-71
2023/12/28 10:35:17;;;;;;;50.72;26.48;;;;;;;6.84;100.00;93937.88;5133192;27;20054;-71
2023/12/28 10:37:47;;;;;;;42.30;22.50;;;;;;;6.91;100.00;93933.69;5134450;27;20495;-71
2023/12/28 10:40:15;;;;;;;51.78;23.13;;;;;;;7.11;100.00;93923.03;5131704;27;20062;-71
2023/12/28 10:42:51;;;;;;;39.35;21.55;;;;;;;7.27;100.00;93921.34;5134590;27;20057;-71
2023/12/28 10:45:20;;;;;;;32.65;19.42;;;;;;;7.40;100.00;93908.00;5133159;27;20383;-71
2023/12/28 10:47:55;;;;;;;31.08;17.70;;;;;;;7.69;100.00;93912.34;5132732;27;20142;-71
2023/12/28 10:50:27;;;;;;;37.90;19.58;;;;;;;8.03;100.00;93905.16;5131056;27;20070;-71
2023/12/28 10:53:02;;;;;;;37.72;18.63;;;;;;;8.13;100.00;93902.31;5132288;27;20050;-71
2023/12/28 10:55:41;;;;;;;37.40;19.30;;;;;;;8.43;100.00;93912.56;5131868;27;20043;-71
2023/12/28 10:58:13;;;;;;;16.15;7.20;;;;;;;8.95;94.93;93899.75;5130378;27;20043;-71
2023/12/28 11:00:46;;;;;;;16.50;6.28;;;;;;;9.52;91.84;93899.03;5142326;27;20050;-71
2023/12/28 11:03:16;;;;;;;17.50;6.85;;;;;;;9.76;88.51;93869.63;5139643;27;20175;-71
2023/12/28 11:05:46;;;;;;;27.88;12.70;;;;;;;10.39;85.86;93889.31;5135975;27;20050;-71
2023/12/28 11:08:17;;;;;;;12.52;4.18;;;;;;;10.50;83.37;93861.50;5134567;27;20049;-71
2023/12/28 11:10:45;;;;;;;9.43;3.40;;;;;;;10.90;81.11;93878.81;5139417;27;20049;-71
2023/12/28 11:13:15;;;;;;;22.58;8.85;;;;;;;11.11;79.81;93877.84;5129972;27;20045;-71
2023/12/28 11:15:42;;;;;;;24.13;11.35;;;;;;;11.23;80.23;93857.50;5130410;27;20961;-71
2023/12/28 11:18:10;;;;;;;13.50;5.07;;;;;;;11.59;78.41;93883.81;5130490;27;20047;-71
2023/12/28 11:20:38;;;;;;;12.75;4.32;;;;;;;11.77;77.20;93875.50;5132295;27;20193;-71
2023/12/28 11:23:07;;;;;;;10.77;4.70;;;;;;;11.84;76.50;93862.59;5132279;27;20054;-71
2023/12/28 11:25:35;;;;;;;20.60;9.27;;;;;;;12.07;76.25;93867.34;5132449;27;20733;-71